Time;durP1;ratioP1;P1;durP2;ratioP2;P2;SDS_P1;SDS_P2;PMS_P1;PMS_P2;Temp;Humidity;BMP_temperature;BMP_pressure;BME280_temperature;BME280_humidity;BME280_pressure;Samples;Min_cycle;Max_cycle;Signal;HPM_P1;HPM_P2
2023/02/17 00:02:04;;;;;;;11.40;5.88;;;;;;;;;;4984391;28;20386;-62
2023/02/17 00:04:30;;;;;;;12.02;5.70;;;;;;;;;;4982904;28;20501;-61
2023/02/17 00:06:56;;;;;;;10.48;5.45;;;;;;;;;;4988921;28;20033;-61
2023/02/17 00:09:21;;;;;;;12.73;5.43;;;;;;;;;;4985215;28;20030;-61
2023/02/17 00:11:46;;;;;;;15.43;6.88;;;;;;;;;;4983763;28;20418;-60
2023/02/17 00:14:12;;;;;;;14.40;6.03;;;;;;;;;;4983598;28;20530;-60
2023/02/17 00:16:37;;;;;;;11.93;5.57;;;;;;;;;;4984693;28;20035;-60
2023/02/17 00:19:22;;;;;;;10.82;5.80;;;;;;;;;;4983049;28;20038;-60
2023/02/17 00:21:48;;;;;;;11.13;5.63;;;;;;;;;;4986116;28;20143;-59
2023/02/17 00:24:13;;;;;;;11.05;5.50;;;;;;;;;;4982917;28;20034;-60
2023/02/17 00:26:38;;;;;;;10.52;5.25;;;;;;;;;;4984027;28;20096;-61
2023/02/17 00:29:04;;;;;;;11.65;5.38;;;;;;;;;;4981957;28;20776;-60
2023/02/17 00:31:29;;;;;;;13.52;5.22;;;;;;;;;;4984167;28;20475;-61
2023/02/17 00:33:57;;;;;;;10.45;5.35;;;;;;;;;;4982539;28;20027;-60
2023/02/17 00:36:23;;;;;;;10.00;5.15;;;;;;;;;;4983901;28;20387;-60
2023/02/17 00:38:48;;;;;;;9.77;5.38;;;;;;;;;;4983876;28;20393;-60
2023/02/17 00:41:14;;;;;;;9.10;5.00;;;;;;;;;;4981818;28;20084;-61
2023/02/17 00:43:40;;;;;;;9.27;5.22;;;;;;;;;;4969612;28;20125;-60
2023/02/17 00:46:05;;;;;;;9.27;5.25;;;;;;;;;;4982397;28;20306;-60
2023/02/17 00:48:31;;;;;;;8.48;5.00;;;;;;;;;;4981092;28;20388;-60
2023/02/17 00:50:56;;;;;;;11.05;5.18;;;;;;;;;;4982269;28;20565;-61
2023/02/17 00:53:21;;;;;;;9.07;5.13;;;;;;;;;;4982094;28;20849;-60
2023/02/17 00:55:47;;;;;;;10.82;5.32;;;;;;;;;;4981522;28;20026;-60
2023/02/17 00:58:12;;;;;;;12.68;4.60;;;;;;;;;;4979741;28;20483;-60
2023/02/17 01:00:38;;;;;;;9.52;4.43;;;;;;;;;;4982623;28;20372;-60
2023/02/17 01:03:03;;;;;;;8.70;4.55;;;;;;;;;;4981304;28;20029;-60
2023/02/17 01:05:29;;;;;;;10.48;4.90;;;;;;;;;;4984754;28;20036;-60
2023/02/17 01:07:54;;;;;;;11.40;4.72;;;;;;;;;;4984716;28;20517;-60
2023/02/17 01:10:19;;;;;;;12.18;4.70;;;;;;;;;;4986011;28;20364;-61
2023/02/17 01:12:45;;;;;;;10.00;4.88;;;;;;;;;;4986472;28;20443;-60
2023/02/17 01:15:11;;;;;;;9.50;4.40;;;;;;;;;;4969822;28;20026;-60
2023/02/17 01:17:36;;;;;;;11.23;4.97;;;;;;;;;;4985226;28;20121;-60
2023/02/17 01:20:01;;;;;;;9.60;4.80;;;;;;;;;;4983174;28;20036;-61
2023/02/17 01:22:27;;;;;;;14.32;4.80;;;;;;;;;;4984467;28;20061;-62
2023/02/17 01:24:53;;;;;;;14.23;5.07;;;;;;;;;;4983860;28;20022;-60
2023/02/17 01:27:19;;;;;;;9.43;4.53;;;;;;;;;;4985859;28;20030;-61
2023/02/17 01:29:46;;;;;;;8.38;4.57;;;;;;;;;;4985884;28;20567;-61
2023/02/17 01:32:11;;;;;;;8.93;4.25;;;;;;;;;;4983569;28;20101;-60
2023/02/17 01:34:37;;;;;;;8.88;4.68;;;;;;;;;;4984447;28;20035;-60
2023/02/17 01:37:04;;;;;;;8.50;4.30;;;;;;;;;;4985086;28;20037;-60
2023/02/17 01:39:29;;;;;;;9.88;4.30;;;;;;;;;;4985365;28;20030;-61
2023/02/17 01:41:55;;;;;;;9.18;4.30;;;;;;;;;;4984089;28;20153;-60
2023/02/17 01:44:22;;;;;;;9.25;4.43;;;;;;;;;;4994577;28;20407;-61
2023/02/17 01:46:52;;;;;;;12.88;4.90;;;;;;;;;;4983976;28;20042;-61
2023/02/17 01:49:20;;;;;;;10.15;4.30;;;;;;;;;;4983708;28;20446;-61
2023/02/17 01:51:48;;;;;;;8.40;4.57;;;;;;;;;;4984040;28;20038;-61
2023/02/17 01:54:15;;;;;;;13.13;4.18;;;;;;;;;;4984648;28;20030;-61
2023/02/17 01:56:43;;;;;;;9.98;4.55;;;;;;;;;;4985937;28;20475;-61
2023/02/17 01:59:08;;;;;;;;;;;;;;;;;;4986552;28;20041;-61
2023/02/17 02:01:34;;;;;;;8.40;4.57;;;;;;;;;;4984656;28;19913;-61
2023/02/17 02:04:01;;;;;;;7.95;4.50;;;;;;;;;;4983677;28;20635;-60
2023/02/17 02:06:27;;;;;;;7.05;4.07;;;;;;;;;;4992934;28;20081;-63
2023/02/17 02:08:55;;;;;;;10.90;4.72;;;;;;;;;;4985702;28;20073;-61
2023/02/17 02:11:20;;;;;;;8.35;3.92;;;;;;;;;;4986675;28;20034;-61
2023/02/17 02:13:47;;;;;;;12.52;4.50;;;;;;;;;;4985808;28;20703;-61
2023/02/17 02:16:31;;;;;;;8.13;4.40;;;;;;;;;;4965526;28;20098;-64
2023/02/17 02:19:04;;;;;;;16.42;4.38;;;;;;;;;;4999637;28;20038;-61
2023/02/17 02:21:33;;;;;;;8.30;4.40;;;;;;;;;;4999398;28;20050;-61
2023/02/17 02:24:13;;;;;;;7.40;4.18;;;;;;;;;;4986877;28;20519;-61
2023/02/17 02:26:38;;;;;;;13.73;4.70;;;;;;;;;;4982808;28;20447;-61
2023/02/17 02:29:06;;;;;;;9.90;4.38;;;;;;;;;;4985085;28;20057;-61
2023/02/17 02:31:41;;;;;;;8.73;4.00;;;;;;;;;;4983179;28;20035;-60
2023/02/17 02:34:08;;;;;;;9.68;4.53;;;;;;;;;;4981706;28;20070;-61
2023/02/17 02:36:41;;;;;;;11.55;4.50;;;;;;;;;;4993533;28;20084;-60
2023/02/17 02:39:09;;;;;;;9.63;4.40;;;;;;;;;;4982876;28;20502;-60
2023/02/17 02:41:54;;;;;;;10.38;3.95;;;;;;;;;;4993692;28;20038;-60
2023/02/17 02:44:20;;;;;;;11.15;4.38;;;;;;;;;;4977997;28;20038;-60
2023/02/17 02:46:55;;;;;;;9.52;4.38;;;;;;;;;;4976675;28;20030;-61
2023/02/17 02:49:20;;;;;;;8.68;4.35;;;;;;;;;;4983140;28;20037;-61
2023/02/17 02:52:10;;;;;;;7.55;4.20;;;;;;;;;;4985280;28;20037;-60
2023/02/17 02:54:35;;;;;;;11.85;4.32;;;;;;;;;;4982558;28;20026;-60
2023/02/17 02:57:06;;;;;;;9.32;4.60;;;;;;;;;;4983445;28;20031;-59
2023/02/17 02:59:49;;;;;;;9.68;4.13;;;;;;;;;;4978363;28;20113;-60
2023/02/17 03:02:27;;;;;;;14.60;4.50;;;;;;;;;;4982940;28;20093;-59
2023/02/17 03:05:03;;;;;;;15.20;4.45;;;;;;;;;;4984188;28;20027;-60
2023/02/17 03:07:40;;;;;;;8.32;4.15;;;;;;;;;;5001753;28;20085;-60
2023/02/17 03:10:07;;;;;;;11.90;4.78;;;;;;;;;;4983680;28;20293;-60
2023/02/17 03:12:34;;;;;;;6.68;3.88;;;;;;;;;;4984403;28;20121;-60
2023/02/17 03:15:01;;;;;;;9.50;4.15;;;;;;;;;;4982952;28;20034;-61
2023/02/17 03:17:29;;;;;;;8.38;4.30;;;;;;;;;;4997609;28;20399;-60
2023/02/17 03:19:55;;;;;;;9.43;4.22;;;;;;;;;;4998046;28;20046;-60
2023/02/17 03:22:22;;;;;;;9.68;4.45;;;;;;;;;;4984615;28;20038;-60
2023/02/17 03:24:48;;;;;;;;;;;;;;;;;;4985430;28;20034;-60
2023/02/17 03:27:13;;;;;;;12.83;4.53;;;;;;;;;;4990367;28;19920;-61
2023/02/17 03:29:38;;;;;;;13.10;4.10;;;;;;;;;;4977205;28;20118;-59
2023/02/17 03:32:04;;;;;;;11.77;4.53;;;;;;;;;;4982680;28;20030;-59
2023/02/17 03:34:30;;;;;;;8.27;4.50;;;;;;;;;;4984063;28;21547;-60
2023/02/17 03:36:55;;;;;;;8.02;4.30;;;;;;;;;;4983580;28;20125;-60
2023/02/17 03:39:21;;;;;;;10.60;4.15;;;;;;;;;;4981935;28;20407;-60
2023/02/17 03:41:49;;;;;;;12.05;4.40;;;;;;;;;;4982648;28;20479;-60
2023/02/17 03:44:14;;;;;;;8.88;4.53;;;;;;;;;;4982352;28;20042;-61
2023/02/17 03:46:40;;;;;;;7.50;4.20;;;;;;;;;;4984090;28;20033;-61
2023/02/17 03:49:06;;;;;;;12.68;4.30;;;;;;;;;;4983869;28;20030;-60
2023/02/17 03:51:31;;;;;;;8.57;3.95;;;;;;;;;;4984035;28;20041;-60
2023/02/17 03:53:56;;;;;;;13.20;4.30;;;;;;;;;;4982608;28;20423;-60
2023/02/17 03:56:22;;;;;;;9.07;4.15;;;;;;;;;;4981418;28;20032;-60
2023/02/17 03:58:47;;;;;;;6.22;4.00;;;;;;;;;;4984655;28;20041;-61
2023/02/17 04:01:13;;;;;;;11.30;5.03;;;;;;;;;;4982310;28;20057;-61
2023/02/17 04:03:39;;;;;;;11.80;4.68;;;;;;;;;;4981809;28;21090;-59
2023/02/17 04:06:04;;;;;;;9.57;4.50;;;;;;;;;;4983276;28;20559;-60
2023/02/17 04:08:30;;;;;;;11.68;5.10;;;;;;;;;;4983507;28;20039;-60
2023/02/17 04:10:59;;;;;;;11.40;3.88;;;;;;;;;;4985775;28;20376;-60
2023/02/17 04:13:25;;;;;;;7.32;3.80;;;;;;;;;;4977486;28;20018;-60
2023/02/17 04:15:50;;;;;;;12.93;4.47;;;;;;;;;;4982653;28;20388;-60
2023/02/17 04:18:16;;;;;;;10.82;3.80;;;;;;;;;;4982266;28;20042;-60
2023/02/17 04:20:42;;;;;;;9.45;4.15;;;;;;;;;;4984884;28;20147;-60
2023/02/17 04:23:07;;;;;;;11.48;4.18;;;;;;;;;;4981057;28;20106;-60
2023/02/17 04:25:36;;;;;;;10.65;4.03;;;;;;;;;;4982415;28;20040;-59
2023/02/17 04:28:05;;;;;;;12.50;4.47;;;;;;;;;;4981377;28;20038;-60
2023/02/17 04:30:30;;;;;;;12.40;4.30;;;;;;;;;;4982640;28;20418;-60
2023/02/17 04:32:56;;;;;;;10.63;3.92;;;;;;;;;;4983046;28;20037;-60
2023/02/17 04:35:21;;;;;;;9.60;3.97;;;;;;;;;;4980358;28;20034;-59
2023/02/17 04:37:46;;;;;;;9.38;4.45;;;;;;;;;;4982119;28;20031;-60
2023/02/17 04:40:12;;;;;;;11.25;3.90;;;;;;;;;;4983992;28;20038;-60
2023/02/17 04:42:37;;;;;;;10.02;4.65;;;;;;;;;;4985291;28;20030;-59
2023/02/17 04:45:03;;;;;;;11.32;4.43;;;;;;;;;;4986085;28;20034;-60
2023/02/17 04:47:29;;;;;;;10.93;4.22;;;;;;;;;;4985199;28;20523;-61
2023/02/17 04:49:54;;;;;;;10.05;4.60;;;;;;;;;;4985054;28;20112;-60
2023/02/17 04:52:19;;;;;;;9.95;4.75;;;;;;;;;;4983576;28;20034;-61
2023/02/17 04:54:44;;;;;;;18.73;4.60;;;;;;;;;;4988499;28;20105;-60
2023/02/17 04:57:10;;;;;;;11.52;4.85;;;;;;;;;;4987567;28;20030;-62
2023/02/17 04:59:35;;;;;;;14.88;4.68;;;;;;;;;;4985157;28;20041;-59
2023/02/17 05:02:00;;;;;;;10.50;4.45;;;;;;;;;;4987365;28;20030;-60
2023/02/17 05:04:26;;;;;;;6.38;4.00;;;;;;;;;;4985626;28;20030;-60
2023/02/17 05:06:53;;;;;;;6.90;4.13;;;;;;;;;;4987134;28;20068;-61
2023/02/17 05:09:18;;;;;;;9.68;4.15;;;;;;;;;;4986900;28;20499;-59
2023/02/17 05:11:43;;;;;;;9.80;4.30;;;;;;;;;;4987327;28;20767;-59
2023/02/17 05:14:09;;;;;;;10.43;4.43;;;;;;;;;;4987053;28;20546;-60
2023/02/17 05:16:34;;;;;;;12.05;4.32;;;;;;;;;;4986824;28;20611;-59
2023/02/17 05:18:59;;;;;;;6.80;4.00;;;;;;;;;;4987558;28;20031;-59
2023/02/17 05:21:24;;;;;;;7.53;4.20;;;;;;;;;;4984534;28;20636;-60
2023/02/17 05:23:50;;;;;;;10.55;4.35;;;;;;;;;;4982217;28;20026;-60
2023/02/17 05:26:15;;;;;;;14.10;4.50;;;;;;;;;;4987691;28;20034;-60
2023/02/17 05:28:40;;;;;;;12.23;4.40;;;;;;;;;;4988356;28;20049;-60
2023/02/17 05:31:06;;;;;;;8.68;4.18;;;;;;;;;;4987143;28;20037;-61
2023/02/17 05:33:31;;;;;;;11.52;4.35;;;;;;;;;;4985480;28;20026;-60
2023/02/17 05:36:00;;;;;;;10.38;4.47;;;;;;;;;;4983429;28;20121;-60
2023/02/17 05:38:26;;;;;;;10.25;3.95;;;;;;;;;;4985572;28;20026;-61
2023/02/17 05:40:51;;;;;;;11.32;4.25;;;;;;;;;;4984602;28;20856;-60
2023/02/17 05:43:16;;;;;;;12.98;4.55;;;;;;;;;;4985906;28;20443;-60
2023/02/17 05:45:41;;;;;;;7.55;4.00;;;;;;;;;;4980257;28;20023;-61
2023/02/17 05:48:07;;;;;;;9.50;4.00;;;;;;;;;;4987749;28;20065;-61
2023/02/17 05:50:32;;;;;;;10.20;4.45;;;;;;;;;;4985129;28;20038;-61
2023/02/17 05:53:01;;;;;;;14.98;4.50;;;;;;;;;;4982275;28;20030;-61
2023/02/17 05:55:26;;;;;;;12.45;4.63;;;;;;;;;;4985057;28;20097;-61
2023/02/17 05:57:51;;;;;;;9.18;4.05;;;;;;;;;;4998843;28;20379;-61
2023/02/17 06:00:17;;;;;;;7.65;4.05;;;;;;;;;;4983957;28;20123;-60
2023/02/17 06:02:42;;;;;;;10.52;4.45;;;;;;;;;;4988415;28;20085;-60
2023/02/17 06:05:08;;;;;;;7.90;4.40;;;;;;;;;;4994743;28;20041;-61
2023/02/17 06:07:33;;;;;;;10.50;4.45;;;;;;;;;;4980426;28;20031;-61
2023/02/17 06:09:59;;;;;;;13.43;5.22;;;;;;;;;;4977599;28;20038;-61
2023/02/17 06:12:24;;;;;;;14.82;4.90;;;;;;;;;;4984683;28;20479;-61
2023/02/17 06:14:49;;;;;;;9.50;4.20;;;;;;;;;;4984597;28;20109;-60
2023/02/17 06:17:15;;;;;;;11.23;4.30;;;;;;;;;;4983898;28;20041;-60
2023/02/17 06:19:40;;;;;;;10.15;4.22;;;;;;;;;;4984161;28;20394;-61
2023/02/17 06:22:05;;;;;;;9.43;4.28;;;;;;;;;;4983379;28;20145;-60
2023/02/17 06:24:30;;;;;;;8.07;4.45;;;;;;;;;;4986016;28;20081;-60
2023/02/17 06:26:56;;;;;;;10.38;3.92;;;;;;;;;;4984652;28;20034;-60
2023/02/17 06:29:21;;;;;;;11.30;5.28;;;;;;;;;;4984393;28;20042;-60
2023/02/17 06:31:46;;;;;;;10.82;5.10;;;;;;;;;;4984915;28;20069;-61
2023/02/17 06:34:12;;;;;;;7.85;4.30;;;;;;;;;;4988978;28;20484;-60
2023/02/17 06:36:37;;;;;;;10.25;4.55;;;;;;;;;;4985774;28;20041;-61
2023/02/17 06:39:02;;;;;;;15.02;4.88;;;;;;;;;;4985888;28;20026;-60
2023/02/17 06:41:27;;;;;;;11.25;4.47;;;;;;;;;;4982623;28;20034;-61
2023/02/17 06:43:53;;;;;;;14.32;4.85;;;;;;;;;;4985587;28;20030;-61
2023/02/17 06:46:18;;;;;;;7.63;4.10;;;;;;;;;;4981100;28;20037;-61
2023/02/17 06:48:43;;;;;;;11.13;4.57;;;;;;;;;;4979685;28;20038;-61
2023/02/17 06:51:09;;;;;;;11.75;4.53;;;;;;;;;;4980229;28;20026;-61
2023/02/17 06:53:34;;;;;;;8.85;4.45;;;;;;;;;;4995458;28;20034;-59
2023/02/17 06:55:59;;;;;;;14.05;4.82;;;;;;;;;;4983748;28;20029;-60
2023/02/17 06:58:25;;;;;;;10.13;4.90;;;;;;;;;;4983807;28;20181;-59
2023/02/17 07:00:50;;;;;;;11.13;4.88;;;;;;;;;;4999129;28;20042;-60
2023/02/17 07:03:16;;;;;;;13.43;4.65;;;;;;;;;;4981565;28;20490;-60
2023/02/17 07:05:41;;;;;;;8.60;4.63;;;;;;;;;;4984903;28;20050;-59
2023/02/17 07:08:06;;;;;;;10.18;5.00;;;;;;;;;;4983157;28;20038;-60
2023/02/17 07:10:32;;;;;;;10.52;4.80;;;;;;;;;;4966264;28;20078;-60
2023/02/17 07:12:57;;;;;;;8.35;4.63;;;;;;;;;;4983243;28;20038;-61
2023/02/17 07:15:23;;;;;;;13.55;4.68;;;;;;;;;;4979232;28;20171;-60
2023/02/17 07:17:48;;;;;;;11.35;4.95;;;;;;;;;;4981525;28;20084;-60
2023/02/17 07:20:13;;;;;;;12.30;4.97;;;;;;;;;;4982478;28;20432;-61
2023/02/17 07:22:39;;;;;;;11.77;4.72;;;;;;;;;;4983156;28;20478;-60
2023/02/17 07:25:05;;;;;;;12.85;4.70;;;;;;;;;;4983001;28;20454;-59
2023/02/17 07:27:31;;;;;;;11.65;5.30;;;;;;;;;;4982471;28;20033;-60
2023/02/17 07:29:56;;;;;;;9.98;4.93;;;;;;;;;;4983768;28;20042;-60
2023/02/17 07:32:21;;;;;;;11.05;4.68;;;;;;;;;;4984629;28;20042;-60
2023/02/17 07:34:47;;;;;;;11.82;5.07;;;;;;;;;;4987725;28;20038;-60
2023/02/17 07:37:12;;;;;;;11.05;4.93;;;;;;;;;;4985478;28;20034;-61
2023/02/17 07:39:37;;;;;;;12.85;5.15;;;;;;;;;;4984046;28;20061;-59
2023/02/17 07:42:03;;;;;;;8.23;4.45;;;;;;;;;;4982434;28;20033;-61
2023/02/17 07:44:31;;;;;;;9.55;4.30;;;;;;;;;;4984197;28;20435;-60
2023/02/17 07:46:56;;;;;;;11.48;4.50;;;;;;;;;;4983744;28;20018;-60
2023/02/17 07:49:22;;;;;;;9.02;4.72;;;;;;;;;;4983765;28;20069;-61
2023/02/17 07:51:47;;;;;;;8.15;4.60;;;;;;;;;;4976909;28;20032;-60
2023/02/17 07:54:13;;;;;;;9.52;5.00;;;;;;;;;;4978352;28;20030;-60
2023/02/17 07:56:38;;;;;;;10.57;4.55;;;;;;;;;;4983681;28;20030;-61
2023/02/17 07:59:07;;;;;;;8.02;4.43;;;;;;;;;;4981694;28;20089;-61
2023/02/17 08:01:32;;;;;;;13.15;4.15;;;;;;;;;;4976837;28;20104;-60
2023/02/17 08:03:57;;;;;;;8.60;4.63;;;;;;;;;;4981798;28;20487;-60
2023/02/17 08:06:24;;;;;;;8.75;4.50;;;;;;;;;;4982023;28;20057;-60
2023/02/17 08:14:22;;;;;;;8.70;4.15;;;;;;;;;;4981828;28;20050;-60
2023/02/17 08:16:47;;;;;;;8.35;4.22;;;;;;;;;;4981129;28;20033;-60
2023/02/17 08:19:13;;;;;;;10.55;4.70;;;;;;;;;;4983654;28;20034;-59
2023/02/17 08:21:38;;;;;;;7.88;4.40;;;;;;;;;;4979387;28;20109;-59
2023/02/17 08:24:04;;;;;;;18.95;4.30;;;;;;;;;;4982066;28;20054;-61
2023/02/17 08:26:29;;;;;;;10.20;3.83;;;;;;;;;;4974520;28;20495;-60
2023/02/17 08:28:54;;;;;;;5.85;3.60;;;;;;;;;;4983270;28;20121;-60
2023/02/17 08:31:22;;;;;;;7.50;3.53;;;;;;;;;;4979274;28;20037;-60
2023/02/17 08:33:48;;;;;;;8.95;4.35;;;;;;;;;;4985111;28;20076;-61
2023/02/17 08:36:13;;;;;;;8.52;3.85;;;;;;;;;;4982996;28;20458;-61
2023/02/17 08:38:39;;;;;;;11.57;4.25;;;;;;;;;;4986933;28;20451;-60
2023/02/17 08:41:11;;;;;;;8.10;4.10;;;;;;;;;;4987175;28;20110;-60
2023/02/17 08:43:37;;;;;;;10.30;3.90;;;;;;;;;;4980801;28;20046;-61
2023/02/17 08:46:06;;;;;;;10.90;3.65;;;;;;;;;;4982490;28;20030;-59
2023/02/17 08:48:31;;;;;;;7.28;3.70;;;;;;;;;;4982419;28;20038;-59
2023/02/17 08:50:56;;;;;;;13.57;3.75;;;;;;;;;;4983801;28;20041;-60
2023/02/17 08:53:22;;;;;;;9.43;4.22;;;;;;;;;;4986073;28;20110;-61
2023/02/17 08:55:47;;;;;;;8.00;3.70;;;;;;;;;;4981896;28;20533;-59
2023/02/17 08:58:12;;;;;;;7.35;3.85;;;;;;;;;;4981456;28;20143;-60
2023/02/17 09:00:37;;;;;;;8.68;4.00;;;;;;;;;;4980664;28;20042;-59
2023/02/17 09:03:03;;;;;;;7.22;3.78;;;;;;;;;;4983974;28;20092;-60
2023/02/17 09:05:28;;;;;;;11.55;3.80;;;;;;;;;;4992907;28;20033;-60
2023/02/17 09:07:53;;;;;;;9.43;4.22;;;;;;;;;;4984168;28;20430;-60
2023/02/17 09:10:19;;;;;;;9.98;4.28;;;;;;;;;;4985086;28;20037;-60
2023/02/17 09:12:44;;;;;;;10.00;4.05;;;;;;;;;;4985933;28;20034;-61
2023/02/17 09:15:09;;;;;;;7.10;3.80;;;;;;;;;;4983184;28;20038;-60
2023/02/17 09:17:37;;;;;;;7.75;3.67;;;;;;;;;;4983915;28;20634;-60
2023/02/17 09:20:03;;;;;;;7.88;3.92;;;;;;;;;;4987300;28;20030;-60
2023/02/17 09:22:28;;;;;;;10.07;3.75;;;;;;;;;;4987041;28;20100;-60
2023/02/17 09:24:53;;;;;;;7.30;3.92;;;;;;;;;;4988524;28;20027;-60
2023/02/17 09:27:19;;;;;;;8.52;3.85;;;;;;;;;;4989680;28;20034;-60
2023/02/17 09:29:44;;;;;;;7.50;3.33;;;;;;;;;;4988854;28;20545;-61
2023/02/17 09:32:09;;;;;;;9.00;4.38;;;;;;;;;;4989959;28;20030;-60
2023/02/17 09:34:36;;;;;;;6.28;3.88;;;;;;;;;;4988820;28;20428;-59
2023/02/17 09:37:01;;;;;;;8.77;4.65;;;;;;;;;;4990271;28;20048;-60
2023/02/17 09:39:26;;;;;;;7.97;4.00;;;;;;;;;;4990250;28;20038;-59
2023/02/17 09:41:54;;;;;;;9.55;4.47;;;;;;;;;;4986543;28;20034;-60
2023/02/17 09:44:23;;;;;;;9.40;4.50;;;;;;;;;;4984486;28;20130;-60
2023/02/17 09:47:06;;;;;;;10.45;5.15;;;;;;;;;;4985309;28;20034;-59
2023/02/17 09:49:35;;;;;;;8.68;4.38;;;;;;;;;;4987524;28;20049;-60
2023/02/17 09:52:04;;;;;;;10.48;4.32;;;;;;;;;;4986276;28;20034;-60
2023/02/17 09:54:55;;;;;;;8.50;4.60;;;;;;;;;;4988834;28;20038;-60
2023/02/17 09:57:23;;;;;;;11.43;4.75;;;;;;;;;;4988819;28;20055;-59
2023/02/17 09:59:52;;;;;;;8.38;4.40;;;;;;;;;;4988207;28;20046;-60
2023/02/17 10:02:23;;;;;;;8.05;4.30;;;;;;;;;;4988953;28;20163;-61
2023/02/17 10:04:49;;;;;;;7.97;4.50;;;;;;;;;;4981485;28;20037;-60
2023/02/17 10:07:27;;;;;;;11.15;3.97;;;;;;;;;;4986590;28;20034;-60
2023/02/17 10:10:04;;;;;;;7.43;3.90;;;;;;;;;;4987065;28;20499;-61
2023/02/17 10:12:29;;;;;;;;;;;;;;;;;;4988005;28;20434;-60
2023/02/17 10:14:56;;;;;;;7.77;3.63;;;;;;;;;;4987555;28;20390;-60
2023/02/17 10:17:32;;;;;;;6.63;3.17;;;;;;;;;;4987863;28;20471;-60
2023/02/17 10:20:07;;;;;;;8.80;3.70;;;;;;;;;;4988330;28;20506;-61
2023/02/17 10:22:33;;;;;;;8.95;3.70;;;;;;;;;;4989882;28;20116;-60
2023/02/17 10:24:59;;;;;;;8.48;3.70;;;;;;;;;;4988576;28;20444;-60
2023/02/17 10:27:34;;;;;;;8.25;3.78;;;;;;;;;;4988444;28;20042;-61
2023/02/17 10:30:00;;;;;;;7.35;3.90;;;;;;;;;;4988187;28;20057;-60
2023/02/17 10:32:27;;;;;;;11.50;3.90;;;;;;;;;;4987485;28;20038;-60
2023/02/17 10:35:07;;;;;;;6.25;3.70;;;;;;;;;;4988584;28;20034;-63
2023/02/17 10:37:32;;;;;;;9.40;4.32;;;;;;;;;;4989001;28;20030;-60
2023/02/17 10:40:00;;;;;;;7.25;3.10;;;;;;;;;;4989841;28;20431;-61
2023/02/17 10:42:31;;;;;;;6.47;3.28;;;;;;;;;;4993892;28;20526;-60
2023/02/17 10:45:02;;;;;;;5.82;2.97;;;;;;;;;;4985785;28;20415;-60
2023/02/17 10:47:28;;;;;;;8.23;3.45;;;;;;;;;;4988232;28;20031;-60
2023/02/17 10:49:54;;;;;;;7.45;3.05;;;;;;;;;;4988107;28;20037;-60
2023/02/17 10:52:22;;;;;;;23.15;3.75;;;;;;;;;;4988070;28;20070;-60
2023/02/17 10:54:50;;;;;;;5.68;3.05;;;;;;;;;;4987752;28;20038;-61
2023/02/17 10:57:16;;;;;;;5.70;3.30;;;;;;;;;;4987792;28;20072;-61
2023/02/17 10:59:42;;;;;;;5.88;3.42;;;;;;;;;;4986026;28;20058;-61
2023/02/17 11:02:16;;;;;;;4.80;2.55;;;;;;;;;;4987815;28;20120;-60
2023/02/17 11:04:43;;;;;;;8.45;3.60;;;;;;;;;;4985434;28;20039;-60
2023/02/17 11:07:10;;;;;;;7.13;3.50;;;;;;;;;;4983627;28;20046;-61
2023/02/17 11:09:38;;;;;;;6.10;2.92;;;;;;;;;;4986848;28;20120;-61
2023/02/17 11:12:11;;;;;;;6.55;3.35;;;;;;;;;;4987740;28;20039;-61
2023/02/17 11:14:42;;;;;;;6.30;3.28;;;;;;;;;;4986597;28;20081;-61
2023/02/17 11:17:17;;;;;;;7.35;3.25;;;;;;;;;;4986977;28;20026;-61
2023/02/17 11:19:52;;;;;;;6.50;3.10;;;;;;;;;;4986913;28;20063;-60
2023/02/17 11:22:30;;;;;;;6.57;3.20;;;;;;;;;;4988512;28;20053;-61
2023/02/17 11:24:59;;;;;;;6.68;3.70;;;;;;;;;;4989545;28;20364;-62
2023/02/17 11:27:25;;;;;;;8.10;4.13;;;;;;;;;;4986521;28;20141;-60
2023/02/17 11:29:50;;;;;;;7.90;3.80;;;;;;;;;;4983964;28;20495;-60
2023/02/17 11:32:16;;;;;;;8.20;3.47;;;;;;;;;;4990700;28;20035;-60
2023/02/17 11:34:42;;;;;;;7.05;3.45;;;;;;;;;;4988698;28;20149;-59
2023/02/17 11:37:10;;;;;;;8.48;4.18;;;;;;;;;;4986261;28;20488;-59
2023/02/17 11:39:40;;;;;;;8.88;3.47;;;;;;;;;;4985159;28;20042;-58
2023/02/17 11:42:20;;;;;;;4.95;3.05;;;;;;;;;;4984507;28;20498;-59
2023/02/17 11:44:46;;;;;;;8.13;3.47;;;;;;;;;;4984387;28;20042;-59
2023/02/17 11:47:29;;;;;;;8.43;3.42;;;;;;;;;;4986368;28;20042;-59
2023/02/17 11:50:13;;;;;;;5.03;3.22;;;;;;;;;;4985494;28;20069;-60
2023/02/17 11:52:53;;;;;;;6.93;3.75;;;;;;;;;;4985847;28;20476;-60
2023/02/17 11:55:22;;;;;;;7.38;3.67;;;;;;;;;;4983254;28;20042;-60
2023/02/17 11:58:02;;;;;;;6.20;3.75;;;;;;;;;;4984279;28;20046;-62
2023/02/17 12:00:37;;;;;;;7.82;3.92;;;;;;;;;;4984359;28;20395;-59
2023/02/17 12:03:17;;;;;;;7.40;4.20;;;;;;;;;;4984557;28;20041;-60
2023/02/17 12:05:42;;;;;;;7.68;4.78;;;;;;;;;;4986047;28;20034;-59
2023/02/17 12:08:19;;;;;;;6.53;4.25;;;;;;;;;;4984560;28;20449;-61
2023/02/17 12:10:54;;;;;;;8.32;5.07;;;;;;;;;;4988235;28;20034;-60
2023/02/17 12:13:34;;;;;;;8.57;4.95;;;;;;;;;;4984401;28;20089;-60
2023/02/17 12:16:23;;;;;;;8.73;4.72;;;;;;;;;;5002098;28;20042;-60
2023/02/17 12:19:00;;;;;;;7.78;4.10;;;;;;;;;;4979948;28;20054;-60
2023/02/17 12:21:25;;;;;;;12.35;4.63;;;;;;;;;;4985716;28;20092;-59
2023/02/17 12:24:04;;;;;;;8.73;4.30;;;;;;;;;;4984916;28;20034;-60
2023/02/17 12:26:35;;;;;;;7.70;4.80;;;;;;;;;;4979071;28;20038;-59
2023/02/17 12:29:00;;;;;;;9.80;5.43;;;;;;;;;;4981651;28;20038;-59
2023/02/17 12:31:44;;;;;;;8.82;4.65;;;;;;;;;;4986244;28;20036;-59
2023/02/17 12:34:12;;;;;;;7.40;4.85;;;;;;;;;;4987740;28;20085;-60
2023/02/17 12:36:39;;;;;;;9.10;4.75;;;;;;;;;;4986633;28;20061;-59
2023/02/17 12:39:19;;;;;;;9.73;4.40;;;;;;;;;;4986852;28;20030;-59
2023/02/17 12:41:47;;;;;;;9.35;4.65;;;;;;;;;;4984639;28;20039;-59
2023/02/17 12:44:16;;;;;;;9.23;5.65;;;;;;;;;;4985461;28;20018;-59
2023/02/17 12:46:42;;;;;;;13.30;6.30;;;;;;;;;;4985210;28;20033;-60
2023/02/17 12:49:31;;;;;;;15.43;7.13;;;;;;;;;;4985618;28;20027;-60
2023/02/17 12:52:00;;;;;;;15.52;8.02;;;;;;;;;;4985270;28;20135;-61
2023/02/17 12:54:43;;;;;;;13.02;7.18;;;;;;;;;;5000723;28;20132;-60
2023/02/17 12:57:09;;;;;;;12.48;6.97;;;;;;;;;;4983669;28;20038;-60
2023/02/17 12:59:36;;;;;;;12.23;6.13;;;;;;;;;;4987125;28;20391;-60
2023/02/17 13:02:01;;;;;;;;;;;;;;;;;;4984013;28;20035;-59
2023/02/17 13:04:28;;;;;;;13.63;6.43;;;;;;;;;;4987073;28;20324;-60
2023/02/17 13:06:57;;;;;;;10.75;6.97;;;;;;;;;;4987838;28;20033;-60
2023/02/17 13:09:27;;;;;;;13.25;7.13;;;;;;;;;;4985977;28;20034;-61
2023/02/17 13:11:53;;;;;;;12.38;7.28;;;;;;;;;;4988157;28;20033;-61
2023/02/17 13:14:21;;;;;;;13.23;7.00;;;;;;;;;;4987239;28;20081;-60
2023/02/17 13:16:47;;;;;;;14.90;6.90;;;;;;;;;;4988475;28;20045;-59
2023/02/17 13:19:13;;;;;;;12.00;6.50;;;;;;;;;;4988154;28;20030;-60
2023/02/17 13:21:47;;;;;;;12.40;7.25;;;;;;;;;;4985352;28;20129;-59
2023/02/17 13:24:14;;;;;;;13.40;6.65;;;;;;;;;;4987566;28;20080;-60
2023/02/17 13:26:39;;;;;;;11.52;7.00;;;;;;;;;;4988714;28;20555;-59
2023/02/17 13:29:20;;;;;;;10.88;6.30;;;;;;;;;;4990002;28;20038;-59
2023/02/17 13:31:47;;;;;;;13.60;7.82;;;;;;;;;;4988782;28;20026;-60
2023/02/17 13:34:23;;;;;;;14.05;8.50;;;;;;;;;;4986735;28;20026;-60
2023/02/17 13:36:48;;;;;;;14.50;7.30;;;;;;;;;;4987923;28;20038;-60
2023/02/17 13:39:28;;;;;;;12.15;6.53;;;;;;;;;;4983190;28;20033;-62
2023/02/17 13:41:55;;;;;;;9.30;5.35;;;;;;;;;;4987270;28;20034;-61
2023/02/17 13:44:27;;;;;;;10.80;5.20;;;;;;;;;;4987492;28;20029;-60
2023/02/17 13:46:55;;;;;;;10.77;5.88;;;;;;;;;;4986308;28;20040;-60
2023/02/17 13:49:23;;;;;;;8.88;5.32;;;;;;;;;;4985830;28;20031;-60
2023/02/17 13:51:48;;;;;;;;;;;;;;;;;;4986577;28;20030;-61
2023/02/17 13:54:13;;;;;;;13.20;6.37;;;;;;;;;;4986259;28;19914;-60
2023/02/17 13:56:39;;;;;;;13.65;7.05;;;;;;;;;;4983910;28;20049;-59
2023/02/17 13:59:16;;;;;;;7.82;5.30;;;;;;;;;;4986314;28;20033;-60
2023/02/17 14:01:42;;;;;;;11.50;6.18;;;;;;;;;;4989555;28;20045;-60
2023/02/17 14:04:18;;;;;;;10.43;5.72;;;;;;;;;;4991375;28;20030;-60
2023/02/17 14:06:44;;;;;;;8.50;5.17;;;;;;;;;;4991585;28;20031;-60
2023/02/17 14:09:20;;;;;;;9.00;5.40;;;;;;;;;;4984768;28;20092;-60
2023/02/17 14:11:46;;;;;;;8.18;5.32;;;;;;;;;;4985945;28;20035;-60
2023/02/17 14:14:11;;;;;;;7.18;4.97;;;;;;;;;;4989600;28;20038;-59
2023/02/17 14:16:38;;;;;;;7.93;4.80;;;;;;;;;;4989521;28;20035;-61
2023/02/17 14:19:08;;;;;;;8.15;4.40;;;;;;;;;;4986451;28;20081;-59
2023/02/17 14:21:34;;;;;;;10.00;6.03;;;;;;;;;;4984565;28;20126;-60
2023/02/17 14:23:59;;;;;;;7.90;5.22;;;;;;;;;;4984796;28;20088;-60
2023/02/17 14:26:27;;;;;;;9.75;4.85;;;;;;;;;;4987075;28;20105;-60
2023/02/17 14:28:52;;;;;;;;;;;;;;;;;;4988027;28;20065;-61
2023/02/17 14:31:18;;;;;;;6.63;4.37;;;;;;;;;;4989118;28;19952;-60
2023/02/17 14:33:50;;;;;;;6.55;4.32;;;;;;;;;;4988368;28;20053;-61
2023/02/17 14:36:24;;;;;;;6.80;4.30;;;;;;;;;;4986375;28;20049;-61
2023/02/17 14:38:53;;;;;;;7.38;4.90;;;;;;;;;;4985361;28;20051;-61
2023/02/17 14:41:18;;;;;;;9.23;5.40;;;;;;;;;;4986290;28;20018;-59
2023/02/17 14:43:43;;;;;;;9.65;5.55;;;;;;;;;;4986014;28;20041;-60
2023/02/17 14:46:09;;;;;;;7.22;4.90;;;;;;;;;;4990397;28;20160;-61
2023/02/17 14:48:34;;;;;;;7.00;4.60;;;;;;;;;;4984965;28;20117;-60